sensor_id;sensor_type;location;lat;lon;timestamp;temperature;humidity
21759;DHT22;11041;50.854;20.580;2023-07-13T00:00:55;19.70;99.90
21759;DHT22;11041;50.854;20.580;2023-07-13T00:03:40;19.70;99.90
21759;DHT22;11041;50.854;20.580;2023-07-13T00:06:08;19.70;99.90
21759;DHT22;11041;50.854;20.580;2023-07-13T00:08:35;19.70;99.90
21759;DHT22;11041;50.854;20.580;2023-07-13T00:11:02;19.70;99.90
21759;DHT22;11041;50.854;20.580;2023-07-13T00:13:30;19.60;99.90
21759;DHT22;11041;50.854;20.580;2023-07-13T00:15:58;19.60;99.90
21759;DHT22;11041;50.854;20.580;2023-07-13T00:18:24;19.60;99.90
21759;DHT22;11041;50.854;20.580;2023-07-13T00:20:51;19.60;99.90
21759;DHT22;11041;50.854;20.580;2023-07-13T00:23:17;19.40;99.90
21759;DHT22;11041;50.854;20.580;2023-07-13T00:25:43;19.40;99.90
21759;DHT22;11041;50.854;20.580;2023-07-13T00:28:09;19.30;99.90
21759;DHT22;11041;50.854;20.580;2023-07-13T00:30:38;19.10;99.90
21759;DHT22;11041;50.854;20.580;2023-07-13T00:33:05;19.10;99.90
21759;DHT22;11041;50.854;20.580;2023-07-13T00:35:31;19.20;99.90
21759;DHT22;11041;50.854;20.580;2023-07-13T00:37:58;19.10;99.90
21759;DHT22;11041;50.854;20.580;2023-07-13T00:40:24;19.30;99.90
21759;DHT22;11041;50.854;20.580;2023-07-13T00:42:52;19.30;99.90
21759;DHT22;11041;50.854;20.580;2023-07-13T00:47:45;19.40;99.90
21759;DHT22;11041;50.854;20.580;2023-07-13T00:50:14;19.50;99.90
21759;DHT22;11041;50.854;20.580;2023-07-13T00:52:47;19.40;99.90
21759;DHT22;11041;50.854;20.580;2023-07-13T00:55:17;19.40;99.90
21759;DHT22;11041;50.854;20.580;2023-07-13T00:57:44;19.40;99.90
21759;DHT22;11041;50.854;20.580;2023-07-13T01:00:11;19.50;99.90
21759;DHT22;11041;50.854;20.580;2023-07-13T01:02:40;19.40;99.90
21759;DHT22;11041;50.854;20.580;2023-07-13T01:05:10;19.30;99.90
21759;DHT22;11041;50.854;20.580;2023-07-13T01:07:41;19.30;99.90
21759;DHT22;11041;50.854;20.580;2023-07-13T01:10:11;19.20;99.90
21759;DHT22;11041;50.854;20.580;2023-07-13T01:12:38;19.20;99.90
21759;DHT22;11041;50.854;20.580;2023-07-13T01:15:32;19.30;99.90
21759;DHT22;11041;50.854;20.580;2023-07-13T01:18:17;19.30;99.90
21759;DHT22;11041;50.854;20.580;2023-07-13T01:20:59;19.40;99.90
21759;DHT22;11041;50.854;20.580;2023-07-13T01:23:29;19.40;99.90
21759;DHT22;11041;50.854;20.580;2023-07-13T01:25:57;19.40;99.90
21759;DHT22;11041;50.854;20.580;2023-07-13T01:28:25;19.40;99.90
21759;DHT22;11041;50.854;20.580;2023-07-13T01:30:58;19.30;99.90
21759;DHT22;11041;50.854;20.580;2023-07-13T01:33:25;19.40;99.90
21759;DHT22;11041;50.854;20.580;2023-07-13T01:35:52;19.40;99.90
21759;DHT22;11041;50.854;20.580;2023-07-13T01:38:21;19.50;99.90
21759;DHT22;11041;50.854;20.580;2023-07-13T01:40:49;19.50;99.90
21759;DHT22;11041;50.854;20.580;2023-07-13T01:43:17;19.50;99.90
21759;DHT22;11041;50.854;20.580;2023-07-13T01:45:44;19.50;99.90
21759;DHT22;11041;50.854;20.580;2023-07-13T01:48:11;19.50;99.90
21759;DHT22;11041;50.854;20.580;2023-07-13T01:50:38;19.50;99.90
21759;DHT22;11041;50.854;20.580;2023-07-13T01:53:05;19.60;99.90
21759;DHT22;11041;50.854;20.580;2023-07-13T01:55:33;19.60;99.90
21759;DHT22;11041;50.854;20.580;2023-07-13T01:58:00;19.60;99.90
21759;DHT22;11041;50.854;20.580;2023-07-13T02:00:27;19.60;99.90
21759;DHT22;11041;50.854;20.580;2023-07-13T02:02:53;19.70;99.90
21759;DHT22;11041;50.854;20.580;2023-07-13T02:05:20;19.70;99.90
21759;DHT22;11041;50.854;20.580;2023-07-13T02:07:47;19.70;99.90
21759;DHT22;11041;50.854;20.580;2023-07-13T02:10:13;19.70;99.90
21759;DHT22;11041;50.854;20.580;2023-07-13T02:12:40;19.60;99.90
21759;DHT22;11041;50.854;20.580;2023-07-13T02:15:07;19.60;99.90
21759;DHT22;11041;50.854;20.580;2023-07-13T02:17:35;19.60;99.90
21759;DHT22;11041;50.854;20.580;2023-07-13T02:20:03;19.50;99.90
21759;DHT22;11041;50.854;20.580;2023-07-13T02:22:30;19.50;99.90
21759;DHT22;11041;50.854;20.580;2023-07-13T02:24:57;19.50;99.90
21759;DHT22;11041;50.854;20.580;2023-07-13T02:27:23;19.60;99.90
21759;DHT22;11041;50.854;20.580;2023-07-13T02:29:49;19.60;99.90
21759;DHT22;11041;50.854;20.580;2023-07-13T02:32:17;19.70;99.90
21759;DHT22;11041;50.854;20.580;2023-07-13T02:34:44;19.70;99.90
21759;DHT22;11041;50.854;20.580;2023-07-13T02:37:11;19.70;99.90
21759;DHT22;11041;50.854;20.580;2023-07-13T02:39:38;19.70;99.90
21759;DHT22;11041;50.854;20.580;2023-07-13T02:42:04;19.70;99.90
21759;DHT22;11041;50.854;20.580;2023-07-13T02:44:31;19.70;99.90
21759;DHT22;11041;50.854;20.580;2023-07-13T02:46:57;19.70;99.90
21759;DHT22;11041;50.854;20.580;2023-07-13T02:49:24;19.70;99.90
21759;DHT22;11041;50.854;20.580;2023-07-13T02:51:51;19.70;99.90
21759;DHT22;11041;50.854;20.580;2023-07-13T02:54:17;19.70;99.90
21759;DHT22;11041;50.854;20.580;2023-07-13T02:56:43;19.70;99.90
21759;DHT22;11041;50.854;20.580;2023-07-13T02:59:10;19.50;99.90
21759;DHT22;11041;50.854;20.580;2023-07-13T03:01:37;19.50;99.90
21759;DHT22;11041;50.854;20.580;2023-07-13T03:04:04;19.60;99.90
21759;DHT22;11041;50.854;20.580;2023-07-13T03:06:32;19.60;99.90
21759;DHT22;11041;50.854;20.580;2023-07-13T03:08:58;19.70;99.90
21759;DHT22;11041;50.854;20.580;2023-07-13T03:11:26;19.60;99.90
21759;DHT22;11041;50.854;20.580;2023-07-13T03:13:52;19.60;99.90
21759;DHT22;11041;50.854;20.580;2023-07-13T03:16:19;19.50;99.90
21759;DHT22;11041;50.854;20.580;2023-07-13T03:18:47;19.50;99.90
21759;DHT22;11041;50.854;20.580;2023-07-13T03:21:14;19.60;99.90
21759;DHT22;11041;50.854;20.580;2023-07-13T03:23:41;19.50;99.90
21759;DHT22;11041;50.854;20.580;2023-07-13T03:28:37;19.50;99.90
21759;DHT22;11041;50.854;20.580;2023-07-13T03:31:09;19.50;99.90
21759;DHT22;11041;50.854;20.580;2023-07-13T03:33:42;19.50;99.90
21759;DHT22;11041;50.854;20.580;2023-07-13T03:36:15;19.60;99.90
21759;DHT22;11041;50.854;20.580;2023-07-13T03:38:47;19.70;99.90
21759;DHT22;11041;50.854;20.580;2023-07-13T03:41:19;19.70;99.90
21759;DHT22;11041;50.854;20.580;2023-07-13T03:43:46;19.80;99.90
21759;DHT22;11041;50.854;20.580;2023-07-13T03:46:14;19.80;99.90
21759;DHT22;11041;50.854;20.580;2023-07-13T03:48:46;19.60;99.90
21759;DHT22;11041;50.854;20.580;2023-07-13T03:51:15;19.70;99.90
21759;DHT22;11041;50.854;20.580;2023-07-13T03:53:45;19.80;99.90
21759;DHT22;11041;50.854;20.580;2023-07-13T03:56:14;19.90;99.90
21759;DHT22;11041;50.854;20.580;2023-07-13T03:58:43;19.90;99.90
21759;DHT22;11041;50.854;20.580;2023-07-13T04:01:12;20.00;99.90
21759;DHT22;11041;50.854;20.580;2023-07-13T04:03:41;20.00;99.90
21759;DHT22;11041;50.854;20.580;2023-07-13T04:06:13;20.00;99.90
21759;DHT22;11041;50.854;20.580;2023-07-13T04:08:49;20.10;99.90
21759;DHT22;11041;50.854;20.580;2023-07-13T04:11:29;20.00;99.90
21759;DHT22;11041;50.854;20.580;2023-07-13T04:13:57;19.90;99.90
21759;DHT22;11041;50.854;20.580;2023-07-13T04:16:24;20.00;99.90
21759;DHT22;11041;50.854;20.580;2023-07-13T04:18:51;20.10;99.90
21759;DHT22;11041;50.854;20.580;2023-07-13T04:21:27;20.00;99.90
21759;DHT22;11041;50.854;20.580;2023-07-13T04:23:55;20.00;99.90
21759;DHT22;11041;50.854;20.580;2023-07-13T04:26:22;20.00;99.90
21759;DHT22;11041;50.854;20.580;2023-07-13T04:28:50;20.10;99.90
21759;DHT22;11041;50.854;20.580;2023-07-13T04:31:18;20.10;99.90
21759;DHT22;11041;50.854;20.580;2023-07-13T04:33:45;20.10;99.90
21759;DHT22;11041;50.854;20.580;2023-07-13T04:36:11;20.10;99.90
21759;DHT22;11041;50.854;20.580;2023-07-13T04:38:38;20.20;99.90
21759;DHT22;11041;50.854;20.580;2023-07-13T04:41:05;20.20;99.90
21759;DHT22;11041;50.854;20.580;2023-07-13T04:43:33;20.20;99.90
21759;DHT22;11041;50.854;20.580;2023-07-13T04:46:08;20.30;99.90
21759;DHT22;11041;50.854;20.580;2023-07-13T04:48:37;20.30;99.90
21759;DHT22;11041;50.854;20.580;2023-07-13T04:51:04;20.10;99.90
21759;DHT22;11041;50.854;20.580;2023-07-13T04:53:31;20.00;99.90
21759;DHT22;11041;50.854;20.580;2023-07-13T04:56:01;20.00;99.90
21759;DHT22;11041;50.854;20.580;2023-07-13T04:58:28;19.90;99.90
21759;DHT22;11041;50.854;20.580;2023-07-13T05:01:00;20.00;99.90
21759;DHT22;11041;50.854;20.580;2023-07-13T05:03:28;20.10;99.90
21759;DHT22;11041;50.854;20.580;2023-07-13T05:06:04;20.10;99.90
21759;DHT22;11041;50.854;20.580;2023-07-13T05:08:36;20.10;99.90
21759;DHT22;11041;50.854;20.580;2023-07-13T05:11:04;20.10;99.90
21759;DHT22;11041;50.854;20.580;2023-07-13T05:13:33;20.10;99.90
21759;DHT22;11041;50.854;20.580;2023-07-13T05:16:02;20.20;99.90
21759;DHT22;11041;50.854;20.580;2023-07-13T05:18:30;20.30;99.90
21759;DHT22;11041;50.854;20.580;2023-07-13T05:21:02;20.20;99.90
21759;DHT22;11041;50.854;20.580;2023-07-13T05:23:34;20.30;99.90
21759;DHT22;11041;50.854;20.580;2023-07-13T05:26:03;20.20;99.90
21759;DHT22;11041;50.854;20.580;2023-07-13T05:28:30;20.20;99.90
21759;DHT22;11041;50.854;20.580;2023-07-13T05:30:57;20.20;99.90
21759;DHT22;11041;50.854;20.580;2023-07-13T05:33:24;20.20;99.90
21759;DHT22;11041;50.854;20.580;2023-07-13T05:35:51;20.20;99.90
21759;DHT22;11041;50.854;20.580;2023-07-13T05:38:17;20.10;99.90
21759;DHT22;11041;50.854;20.580;2023-07-13T05:40:44;20.10;99.90
21759;DHT22;11041;50.854;20.580;2023-07-13T05:43:12;20.00;99.90
21759;DHT22;11041;50.854;20.580;2023-07-13T05:45:39;19.90;99.90
21759;DHT22;11041;50.854;20.580;2023-07-13T05:48:06;19.90;99.90
21759;DHT22;11041;50.854;20.580;2023-07-13T05:50:32;19.70;99.90
21759;DHT22;11041;50.854;20.580;2023-07-13T05:52:59;19.50;99.90
21759;DHT22;11041;50.854;20.580;2023-07-13T05:55:25;19.50;99.90
21759;DHT22;11041;50.854;20.580;2023-07-13T05:57:52;19.50;99.90
21759;DHT22;11041;50.854;20.580;2023-07-13T06:00:18;19.40;99.90
21759;DHT22;11041;50.854;20.580;2023-07-13T06:02:45;19.40;99.90
21759;DHT22;11041;50.854;20.580;2023-07-13T06:05:11;19.40;99.90
21759;DHT22;11041;50.854;20.580;2023-07-13T06:07:38;19.50;99.90
21759;DHT22;11041;50.854;20.580;2023-07-13T06:10:05;19.60;99.90
21759;DHT22;11041;50.854;20.580;2023-07-13T06:12:31;19.60;99.90
21759;DHT22;11041;50.854;20.580;2023-07-13T06:14:57;19.40;99.90
21759;DHT22;11041;50.854;20.580;2023-07-13T06:17:24;19.20;99.90
21759;DHT22;11041;50.854;20.580;2023-07-13T06:19:50;19.10;99.90
21759;DHT22;11041;50.854;20.580;2023-07-13T06:22:16;19.10;99.90
21759;DHT22;11041;50.854;20.580;2023-07-13T06:24:42;19.00;99.90
21759;DHT22;11041;50.854;20.580;2023-07-13T06:27:09;19.00;99.90
21759;DHT22;11041;50.854;20.580;2023-07-13T06:29:36;19.00;99.90
21759;DHT22;11041;50.854;20.580;2023-07-13T06:32:02;19.10;99.90
21759;DHT22;11041;50.854;20.580;2023-07-13T06:34:29;19.20;99.90
21759;DHT22;11041;50.854;20.580;2023-07-13T06:36:55;19.30;99.90
21759;DHT22;11041;50.854;20.580;2023-07-13T06:39:27;19.30;99.90
21759;DHT22;11041;50.854;20.580;2023-07-13T06:41:53;19.50;99.90
21759;DHT22;11041;50.854;20.580;2023-07-13T06:44:19;19.70;99.90
21759;DHT22;11041;50.854;20.580;2023-07-13T06:46:46;19.70;99.90
21759;DHT22;11041;50.854;20.580;2023-07-13T06:49:12;19.80;99.90
21759;DHT22;11041;50.854;20.580;2023-07-13T06:51:39;19.90;99.90
21759;DHT22;11041;50.854;20.580;2023-07-13T06:54:05;19.90;99.90
21759;DHT22;11041;50.854;20.580;2023-07-13T06:56:31;20.00;99.90
21759;DHT22;11041;50.854;20.580;2023-07-13T06:58:57;20.00;99.90
21759;DHT22;11041;50.854;20.580;2023-07-13T07:01:24;20.20;99.90
21759;DHT22;11041;50.854;20.580;2023-07-13T07:03:50;20.40;99.90
21759;DHT22;11041;50.854;20.580;2023-07-13T07:06:19;20.50;99.90
21759;DHT22;11041;50.854;20.580;2023-07-13T07:08:49;20.50;99.90
21759;DHT22;11041;50.854;20.580;2023-07-13T07:11:22;20.60;99.90
21759;DHT22;11041;50.854;20.580;2023-07-13T07:13:51;20.60;99.90
21759;DHT22;11041;50.854;20.580;2023-07-13T07:16:19;20.70;99.90
21759;DHT22;11041;50.854;20.580;2023-07-13T07:18:47;20.80;99.90
21759;DHT22;11041;50.854;20.580;2023-07-13T07:21:14;20.90;99.90
21759;DHT22;11041;50.854;20.580;2023-07-13T07:23:41;21.00;99.90
21759;DHT22;11041;50.854;20.580;2023-07-13T07:26:08;21.10;99.90
21759;DHT22;11041;50.854;20.580;2023-07-13T07:28:35;21.10;99.90
21759;DHT22;11041;50.854;20.580;2023-07-13T07:31:02;21.20;99.90
21759;DHT22;11041;50.854;20.580;2023-07-13T07:33:28;21.30;99.90
21759;DHT22;11041;50.854;20.580;2023-07-13T07:35:55;21.30;99.90
21759;DHT22;11041;50.854;20.580;2023-07-13T07:38:27;21.40;99.90
21759;DHT22;11041;50.854;20.580;2023-07-13T07:40:54;21.60;99.90
21759;DHT22;11041;50.854;20.580;2023-07-13T07:43:20;21.80;99.90
21759;DHT22;11041;50.854;20.580;2023-07-13T07:45:46;22.00;99.90
21759;DHT22;11041;50.854;20.580;2023-07-13T07:48:12;22.20;99.90
21759;DHT22;11041;50.854;20.580;2023-07-13T07:50:39;22.30;99.90
21759;DHT22;11041;50.854;20.580;2023-07-13T07:53:06;22.50;99.90
21759;DHT22;11041;50.854;20.580;2023-07-13T07:55:36;22.70;99.90
21759;DHT22;11041;50.854;20.580;2023-07-13T07:58:03;22.90;99.90
21759;DHT22;11041;50.854;20.580;2023-07-13T08:00:29;23.00;99.90
21759;DHT22;11041;50.854;20.580;2023-07-13T08:02:58;23.20;99.90
21759;DHT22;11041;50.854;20.580;2023-07-13T08:05:25;23.40;99.90
21759;DHT22;11041;50.854;20.580;2023-07-13T08:07:51;23.50;99.90
21759;DHT22;11041;50.854;20.580;2023-07-13T08:10:18;23.60;99.90
21759;DHT22;11041;50.854;20.580;2023-07-13T08:12:45;23.70;99.90
21759;DHT22;11041;50.854;20.580;2023-07-13T08:15:13;23.50;99.90
21759;DHT22;11041;50.854;20.580;2023-07-13T08:17:41;23.50;99.90
21759;DHT22;11041;50.854;20.580;2023-07-13T08:20:08;23.70;99.90
21759;DHT22;11041;50.854;20.580;2023-07-13T08:22:35;23.90;99.90
21759;DHT22;11041;50.854;20.580;2023-07-13T08:25:01;24.00;99.90
21759;DHT22;11041;50.854;20.580;2023-07-13T08:27:28;24.20;99.90
21759;DHT22;11041;50.854;20.580;2023-07-13T08:29:55;24.30;99.90
21759;DHT22;11041;50.854;20.580;2023-07-13T08:32:22;24.40;99.90
21759;DHT22;11041;50.854;20.580;2023-07-13T08:34:49;24.50;99.90
21759;DHT22;11041;50.854;20.580;2023-07-13T08:37:17;24.30;99.90
21759;DHT22;11041;50.854;20.580;2023-07-13T08:39:44;24.40;99.90
21759;DHT22;11041;50.854;20.580;2023-07-13T08:45:48;24.40;99.90
21759;DHT22;11041;50.854;20.580;2023-07-13T08:48:35;24.50;99.90
21759;DHT22;11041;50.854;20.580;2023-07-13T08:56:50;24.50;99.90
21759;DHT22;11041;50.854;20.580;2023-07-13T08:59:24;24.30;99.90
21759;DHT22;11041;50.854;20.580;2023-07-13T09:05:04;24.10;99.90
21759;DHT22;11041;50.854;20.580;2023-07-13T09:10:35;24.00;99.90
21759;DHT22;11041;50.854;20.580;2023-07-13T09:16:03;23.80;99.90
21759;DHT22;11041;50.854;20.580;2023-07-13T09:18:43;24.00;99.90
21759;DHT22;11041;50.854;20.580;2023-07-13T09:21:28;24.00;99.90
21759;DHT22;11041;50.854;20.580;2023-07-13T09:24:29;24.00;99.90
21759;DHT22;11041;50.854;20.580;2023-07-13T09:27:14;24.00;99.90
21759;DHT22;11041;50.854;20.580;2023-07-13T09:29:49;23.90;99.90
21759;DHT22;11041;50.854;20.580;2023-07-13T09:32:30;23.90;99.90
21759;DHT22;11041;50.854;20.580;2023-07-13T09:34:58;23.80;99.90
21759;DHT22;11041;50.854;20.580;2023-07-13T09:37:30;23.60;99.90
21759;DHT22;11041;50.854;20.580;2023-07-13T09:40:00;23.60;99.90
21759;DHT22;11041;50.854;20.580;2023-07-13T09:42:32;23.70;99.90
21759;DHT22;11041;50.854;20.580;2023-07-13T09:45:01;23.60;99.90
21759;DHT22;11041;50.854;20.580;2023-07-13T09:47:30;23.50;99.90
21759;DHT22;11041;50.854;20.580;2023-07-13T09:50:04;23.40;99.90
21759;DHT22;11041;50.854;20.580;2023-07-13T09:52:45;23.50;99.90
21759;DHT22;11041;50.854;20.580;2023-07-13T09:55:30;23.70;99.90
21759;DHT22;11041;50.854;20.580;2023-07-13T09:58:23;23.60;99.90
21759;DHT22;11041;50.854;20.580;2023-07-13T10:01:00;23.80;99.90
21759;DHT22;11041;50.854;20.580;2023-07-13T10:03:33;23.40;99.90
21759;DHT22;11041;50.854;20.580;2023-07-13T10:06:16;23.50;99.90
21759;DHT22;11041;50.854;20.580;2023-07-13T10:08:46;23.30;99.90
21759;DHT22;11041;50.854;20.580;2023-07-13T10:11:20;23.30;99.90
21759;DHT22;11041;50.854;20.580;2023-07-13T10:14:03;23.30;99.90
21759;DHT22;11041;50.854;20.580;2023-07-13T10:16:45;23.40;99.90
21759;DHT22;11041;50.854;20.580;2023-07-13T10:25:31;23.30;99.90
21759;DHT22;11041;50.854;20.580;2023-07-13T10:28:27;23.50;99.90
21759;DHT22;11041;50.854;20.580;2023-07-13T10:31:01;23.60;99.90
21759;DHT22;11041;50.854;20.580;2023-07-13T10:33:32;23.60;99.90
21759;DHT22;11041;50.854;20.580;2023-07-13T10:39:03;23.30;99.90
21759;DHT22;11041;50.854;20.580;2023-07-13T10:41:35;23.20;99.90
21759;DHT22;11041;50.854;20.580;2023-07-13T10:44:22;23.30;99.90
21759;DHT22;11041;50.854;20.580;2023-07-13T10:47:20;23.40;99.90
21759;DHT22;11041;50.854;20.580;2023-07-13T10:49:53;23.50;99.90
21759;DHT22;11041;50.854;20.580;2023-07-13T10:52:45;23.60;99.90
21759;DHT22;11041;50.854;20.580;2023-07-13T10:55:34;23.60;99.90
21759;DHT22;11041;50.854;20.580;2023-07-13T11:03:50;23.70;99.90
21759;DHT22;11041;50.854;20.580;2023-07-13T11:08:54;23.90;99.90
21759;DHT22;11041;50.854;20.580;2023-07-13T11:13:58;24.20;99.90
21759;DHT22;11041;50.854;20.580;2023-07-13T11:16:44;24.20;99.90
21759;DHT22;11041;50.854;20.580;2023-07-13T11:22:22;24.20;99.90
21759;DHT22;11041;50.854;20.580;2023-07-13T11:24:56;24.20;99.90
21759;DHT22;11041;50.854;20.580;2023-07-13T11:27:38;23.90;99.90
21759;DHT22;11041;50.854;20.580;2023-07-13T11:36:14;23.90;99.90
21759;DHT22;11041;50.854;20.580;2023-07-13T11:38:59;23.30;99.90
21759;DHT22;11041;50.854;20.580;2023-07-13T11:41:55;22.90;99.90
21759;DHT22;11041;50.854;20.580;2023-07-13T11:44:25;23.00;99.90
21759;DHT22;11041;50.854;20.580;2023-07-13T11:46:55;23.00;99.90
21759;DHT22;11041;50.854;20.580;2023-07-13T11:49:29;22.90;99.90
21759;DHT22;11041;50.854;20.580;2023-07-13T13:23:57;18.50;99.90
21759;DHT22;11041;50.854;20.580;2023-07-13T13:26:25;18.10;99.90
21759;DHT22;11041;50.854;20.580;2023-07-13T13:28:51;17.90;99.90
21759;DHT22;11041;50.854;20.580;2023-07-13T13:31:18;17.80;99.90
21759;DHT22;11041;50.854;20.580;2023-07-13T13:33:46;17.80;99.90
21759;DHT22;11041;50.854;20.580;2023-07-13T13:36:21;17.70;99.90
21759;DHT22;11041;50.854;20.580;2023-07-13T13:38:51;17.70;99.90
21759;DHT22;11041;50.854;20.580;2023-07-13T13:41:18;17.80;99.90
21759;DHT22;11041;50.854;20.580;2023-07-13T13:43:44;17.80;99.90
21759;DHT22;11041;50.854;20.580;2023-07-13T13:48:43;17.90;99.90
21759;DHT22;11041;50.854;20.580;2023-07-13T13:51:21;18.10;99.90
21759;DHT22;11041;50.854;20.580;2023-07-13T13:53:49;18.30;99.90
21759;DHT22;11041;50.854;20.580;2023-07-13T13:56:18;18.20;99.90
21759;DHT22;11041;50.854;20.580;2023-07-13T13:58:46;18.40;99.90
21759;DHT22;11041;50.854;20.580;2023-07-13T14:01:19;18.40;99.90
21759;DHT22;11041;50.854;20.580;2023-07-13T14:03:48;18.60;99.90
21759;DHT22;11041;50.854;20.580;2023-07-13T14:06:17;18.70;99.90
21759;DHT22;11041;50.854;20.580;2023-07-13T14:08:43;18.80;99.90
21759;DHT22;11041;50.854;20.580;2023-07-13T14:11:15;18.80;99.90
21759;DHT22;11041;50.854;20.580;2023-07-13T14:13:49;18.80;99.90
21759;DHT22;11041;50.854;20.580;2023-07-13T14:16:24;18.90;99.90
21759;DHT22;11041;50.854;20.580;2023-07-13T14:18:56;19.00;99.90
21759;DHT22;11041;50.854;20.580;2023-07-13T14:21:28;18.90;99.90
21759;DHT22;11041;50.854;20.580;2023-07-13T14:23:56;18.70;99.90
21759;DHT22;11041;50.854;20.580;2023-07-13T14:26:25;18.70;99.90
21759;DHT22;11041;50.854;20.580;2023-07-13T14:28:56;18.70;99.90
21759;DHT22;11041;50.854;20.580;2023-07-13T14:31:26;18.80;99.90
21759;DHT22;11041;50.854;20.580;2023-07-13T14:33:55;18.50;99.90
21759;DHT22;11041;50.854;20.580;2023-07-13T14:36:39;18.50;99.90
21759;DHT22;11041;50.854;20.580;2023-07-13T14:39:19;18.60;99.90
21759;DHT22;11041;50.854;20.580;2023-07-13T14:41:51;18.40;99.90
21759;DHT22;11041;50.854;20.580;2023-07-13T14:44:26;18.40;99.90
21759;DHT22;11041;50.854;20.580;2023-07-13T14:47:03;18.40;99.90
21759;DHT22;11041;50.854;20.580;2023-07-13T14:52:02;18.30;99.90
21759;DHT22;11041;50.854;20.580;2023-07-13T14:54:36;18.30;99.90
21759;DHT22;11041;50.854;20.580;2023-07-13T14:57:11;18.20;99.90
21759;DHT22;11041;50.854;20.580;2023-07-13T14:59:42;18.30;99.90
21759;DHT22;11041;50.854;20.580;2023-07-13T15:02:28;18.20;99.90
21759;DHT22;11041;50.854;20.580;2023-07-13T15:04:57;18.00;99.90
21759;DHT22;11041;50.854;20.580;2023-07-13T15:07:24;18.00;99.90
21759;DHT22;11041;50.854;20.580;2023-07-13T15:09:51;18.00;99.90
21759;DHT22;11041;50.854;20.580;2023-07-13T15:12:18;18.00;99.90
21759;DHT22;11041;50.854;20.580;2023-07-13T15:14:45;18.00;99.90
21759;DHT22;11041;50.854;20.580;2023-07-13T15:17:35;18.00;99.90
21759;DHT22;11041;50.854;20.580;2023-07-13T15:20:21;18.00;99.90
21759;DHT22;11041;50.854;20.580;2023-07-13T15:22:49;18.10;99.90
21759;DHT22;11041;50.854;20.580;2023-07-13T15:25:18;18.30;99.90
21759;DHT22;11041;50.854;20.580;2023-07-13T15:27:48;18.30;99.90
21759;DHT22;11041;50.854;20.580;2023-07-13T15:30:14;18.20;99.90
21759;DHT22;11041;50.854;20.580;2023-07-13T15:32:45;18.50;99.90
21759;DHT22;11041;50.854;20.580;2023-07-13T15:35:16;18.70;99.90
21759;DHT22;11041;50.854;20.580;2023-07-13T15:37:45;18.70;99.90
21759;DHT22;11041;50.854;20.580;2023-07-13T15:40:13;18.60;99.90
21759;DHT22;11041;50.854;20.580;2023-07-13T15:42:44;18.30;99.90
21759;DHT22;11041;50.854;20.580;2023-07-13T15:45:19;18.30;99.90
21759;DHT22;11041;50.854;20.580;2023-07-13T15:47:48;18.30;99.90
21759;DHT22;11041;50.854;20.580;2023-07-13T15:50:18;18.30;99.90
21759;DHT22;11041;50.854;20.580;2023-07-13T15:52:54;18.60;99.90
21759;DHT22;11041;50.854;20.580;2023-07-13T15:55:24;18.70;99.90
21759;DHT22;11041;50.854;20.580;2023-07-13T15:57:52;18.80;99.90
21759;DHT22;11041;50.854;20.580;2023-07-13T16:00:25;18.80;99.90
21759;DHT22;11041;50.854;20.580;2023-07-13T16:02:53;18.90;99.90
21759;DHT22;11041;50.854;20.580;2023-07-13T16:05:21;18.60;99.90
21759;DHT22;11041;50.854;20.580;2023-07-13T16:07:51;18.70;99.90
21759;DHT22;11041;50.854;20.580;2023-07-13T16:10:25;18.60;99.90
21759;DHT22;11041;50.854;20.580;2023-07-13T16:12:59;18.60;99.90
21759;DHT22;11041;50.854;20.580;2023-07-13T16:15:26;18.70;99.90
21759;DHT22;11041;50.854;20.580;2023-07-13T16:17:53;18.60;99.90
21759;DHT22;11041;50.854;20.580;2023-07-13T16:20:21;18.40;99.90
21759;DHT22;11041;50.854;20.580;2023-07-13T16:22:52;18.40;99.90
21759;DHT22;11041;50.854;20.580;2023-07-13T16:25:23;18.60;99.90
21759;DHT22;11041;50.854;20.580;2023-07-13T16:27:53;18.60;99.90
21759;DHT22;11041;50.854;20.580;2023-07-13T16:30:27;18.70;99.90
21759;DHT22;11041;50.854;20.580;2023-07-13T16:32:59;18.70;99.90
21759;DHT22;11041;50.854;20.580;2023-07-13T16:35:37;18.80;99.90
21759;DHT22;11041;50.854;20.580;2023-07-13T16:38:19;18.90;99.90
21759;DHT22;11041;50.854;20.580;2023-07-13T16:40:47;18.90;99.90
21759;DHT22;11041;50.854;20.580;2023-07-13T16:43:17;18.90;99.90
21759;DHT22;11041;50.854;20.580;2023-07-13T16:45:48;18.90;99.90
21759;DHT22;11041;50.854;20.580;2023-07-13T16:48:33;18.50;99.90
21759;DHT22;11041;50.854;20.580;2023-07-13T16:51:19;18.30;99.90
21759;DHT22;11041;50.854;20.580;2023-07-13T16:53:46;18.50;99.90
21759;DHT22;11041;50.854;20.580;2023-07-13T16:56:15;18.50;99.90
21759;DHT22;11041;50.854;20.580;2023-07-13T16:58:44;18.20;99.90
21759;DHT22;11041;50.854;20.580;2023-07-13T17:01:10;18.40;99.90
21759;DHT22;11041;50.854;20.580;2023-07-13T17:03:38;18.50;99.90
21759;DHT22;11041;50.854;20.580;2023-07-13T17:06:21;18.60;99.90
21759;DHT22;11041;50.854;20.580;2023-07-13T17:08:52;18.70;99.90
21759;DHT22;11041;50.854;20.580;2023-07-13T17:11:20;18.70;99.90
21759;DHT22;11041;50.854;20.580;2023-07-13T17:13:46;18.70;99.90
21759;DHT22;11041;50.854;20.580;2023-07-13T17:16:13;18.60;99.90
21759;DHT22;11041;50.854;20.580;2023-07-13T17:18:40;18.50;99.90
21759;DHT22;11041;50.854;20.580;2023-07-13T17:21:12;18.70;99.90
21759;DHT22;11041;50.854;20.580;2023-07-13T17:23:41;18.90;99.90
21759;DHT22;11041;50.854;20.580;2023-07-13T17:26:08;19.00;99.90
21759;DHT22;11041;50.854;20.580;2023-07-13T17:28:36;19.00;99.90
21759;DHT22;11041;50.854;20.580;2023-07-13T17:31:05;19.10;99.90
21759;DHT22;11041;50.854;20.580;2023-07-13T17:33:38;19.20;99.90
21759;DHT22;11041;50.854;20.580;2023-07-13T17:36:11;19.20;99.90
21759;DHT22;11041;50.854;20.580;2023-07-13T17:38:46;19.30;99.90
21759;DHT22;11041;50.854;20.580;2023-07-13T17:41:22;19.20;99.90
21759;DHT22;11041;50.854;20.580;2023-07-13T17:43:50;19.20;99.90
21759;DHT22;11041;50.854;20.580;2023-07-13T17:46:18;19.10;99.90
21759;DHT22;11041;50.854;20.580;2023-07-13T17:48:54;19.00;99.90
21759;DHT22;11041;50.854;20.580;2023-07-13T17:51:21;18.90;99.90
21759;DHT22;11041;50.854;20.580;2023-07-13T17:53:50;18.70;99.90
21759;DHT22;11041;50.854;20.580;2023-07-13T17:56:16;18.70;99.90
21759;DHT22;11041;50.854;20.580;2023-07-13T17:58:44;18.60;99.90
21759;DHT22;11041;50.854;20.580;2023-07-13T18:01:19;18.50;99.90
21759;DHT22;11041;50.854;20.580;2023-07-13T18:03:50;18.50;99.90